createdAt,value
2019-03-15T00:04:31.358Z,4.07
2019-03-15T00:09:35.862Z,5.03
2019-03-15T00:14:40.507Z,3.80
2019-03-15T00:19:45.084Z,3.80
2019-03-15T00:24:49.082Z,3.90
2019-03-15T00:29:53.388Z,4.60
2019-03-15T00:34:57.718Z,4.43
2019-03-15T00:40:02.095Z,3.90
2019-03-15T00:45:08.260Z,3.27
2019-03-15T00:50:12.823Z,4.27
2019-03-15T00:55:17.331Z,3.80
2019-03-15T01:00:21.462Z,4.50
2019-03-15T01:05:25.567Z,3.43
2019-03-15T01:10:29.650Z,4.70
2019-03-15T01:15:34.510Z,4.53
2019-03-15T01:20:38.925Z,4.07
2019-03-15T01:25:43.351Z,3.70
2019-03-15T01:30:47.743Z,4.40
2019-03-15T01:35:51.862Z,4.50
2019-03-15T01:40:56.062Z,3.33
2019-03-15T01:46:00.575Z,3.53
2019-03-15T01:51:04.564Z,3.90
2019-03-15T01:56:08.784Z,4.53
2019-03-15T02:01:13.012Z,3.20
2019-03-15T02:06:17.587Z,3.80
2019-03-15T02:11:22.055Z,3.83
2019-03-15T02:16:26.223Z,4.70
2019-03-15T02:21:30.436Z,3.73
2019-03-15T02:26:34.527Z,4.23
2019-03-15T02:31:39.204Z,4.70
2019-03-15T02:36:43.571Z,3.87
2019-03-15T02:41:48.088Z,4.90
2019-03-15T02:46:52.731Z,4.10
2019-03-15T02:51:57.038Z,3.93
2019-03-15T02:57:01.612Z,4.20
2019-03-15T03:02:05.838Z,5.20
2019-03-15T03:07:10.097Z,3.53
2019-03-15T03:12:14.928Z,4.50
2019-03-15T03:17:19.030Z,3.97
2019-03-15T03:22:23.292Z,4.03
2019-03-15T03:27:27.471Z,4.30
2019-03-15T03:32:32.247Z,5.60
2019-03-15T03:37:36.501Z,4.23
2019-03-15T03:42:40.921Z,4.30
2019-03-15T03:47:45.663Z,4.60
2019-03-15T03:52:50.266Z,5.00
2019-03-15T03:57:54.570Z,5.37
2019-03-15T04:02:59.149Z,4.70
2019-03-15T04:08:03.300Z,5.70
2019-03-15T04:13:07.971Z,4.93
2019-03-15T04:18:12.886Z,5.20
2019-03-15T04:23:17.011Z,4.77
2019-03-15T04:28:21.910Z,4.40
2019-03-15T04:33:26.679Z,4.57
2019-03-15T04:38:31.251Z,5.00
2019-03-15T04:43:35.920Z,5.43
2019-03-15T04:48:40.424Z,5.80
2019-03-15T04:53:44.492Z,6.03
2019-03-15T04:58:49.216Z,4.27
2019-03-15T05:03:53.518Z,4.53
2019-03-15T05:08:57.823Z,5.07
2019-03-15T05:14:01.886Z,6.00
2019-03-15T05:19:06.578Z,5.40
2019-03-15T05:24:11.395Z,4.60
2019-03-15T05:29:15.563Z,3.90
2019-03-15T05:34:19.847Z,4.93
2019-03-15T05:39:23.963Z,3.97
2019-03-15T05:44:28.310Z,4.77
2019-03-15T05:49:32.687Z,3.97
2019-03-15T05:54:37.251Z,4.90
2019-03-15T05:59:41.636Z,4.33
2019-03-15T06:04:45.644Z,4.70
2019-03-15T06:09:55.021Z,4.00
2019-03-15T06:14:59.597Z,4.57
2019-03-15T06:20:06.289Z,5.43
2019-03-15T06:25:09.826Z,3.53
2019-03-15T06:30:14.162Z,4.53
2019-03-15T06:35:18.484Z,3.90
2019-03-15T06:40:22.745Z,3.73
2019-03-15T06:45:27.051Z,5.10
2019-03-15T06:50:31.136Z,4.63
2019-03-15T06:55:35.591Z,4.17
2019-03-15T07:00:39.990Z,4.70
2019-03-15T07:05:44.543Z,4.10
2019-03-15T07:10:48.589Z,4.87
2019-03-15T07:15:53.214Z,5.43
2019-03-15T07:20:57.449Z,5.87
2019-03-15T07:26:01.988Z,7.57
2019-03-15T07:31:06.058Z,6.00
2019-03-15T07:36:10.619Z,6.63
2019-03-15T07:41:14.920Z,6.27
2019-03-15T07:46:19.055Z,6.90
2019-03-15T07:51:23.362Z,7.43
2019-03-15T07:56:28.725Z,5.93
2019-03-15T08:01:33.344Z,6.80
2019-03-15T08:06:37.315Z,6.53
2019-03-15T08:11:41.365Z,6.77
2019-03-15T08:16:45.940Z,6.77
2019-03-15T08:21:50.079Z,6.10
2019-03-15T08:26:54.301Z,5.77
2019-03-15T08:31:58.615Z,5.33
2019-03-15T08:37:03.061Z,5.00
2019-03-15T08:42:07.095Z,5.37
2019-03-15T08:47:11.587Z,4.80
2019-03-15T08:52:15.907Z,5.20
2019-03-15T08:57:19.955Z,4.10
2019-03-15T09:02:23.942Z,4.27
2019-03-15T09:07:28.197Z,4.13
2019-03-15T09:12:32.355Z,3.43
2019-03-15T09:17:36.639Z,3.57
2019-03-15T09:22:41.244Z,3.43
2019-03-15T09:27:45.847Z,3.37
2019-03-15T09:32:50.354Z,3.53
2019-03-15T09:37:54.394Z,3.30
2019-03-15T09:42:59.997Z,3.67
2019-03-15T09:48:04.247Z,3.53
2019-03-15T09:53:08.302Z,2.80
2019-03-15T09:58:15.496Z,2.13
2019-03-15T10:03:22.391Z,1.93
2019-03-15T10:08:26.215Z,1.73
2019-03-15T10:13:31.036Z,1.40
2019-03-15T10:18:35.368Z,1.40
2019-03-15T10:23:39.674Z,1.00
2019-03-15T10:28:43.892Z,0.90
2019-03-15T10:33:50.708Z,1.13
2019-03-15T10:38:54.504Z,1.10
2019-03-15T10:43:58.823Z,0.93
2019-03-15T10:49:03.374Z,1.10
2019-03-15T10:54:07.351Z,0.93
2019-03-15T10:59:11.399Z,1.00
2019-03-15T11:04:15.489Z,1.20
2019-03-15T11:09:19.724Z,1.10
2019-03-15T11:14:24.263Z,1.57
2019-03-15T11:19:28.359Z,1.93
2019-03-15T11:24:32.975Z,1.57
2019-03-15T11:29:37.282Z,1.50
2019-03-15T11:34:41.855Z,1.50
2019-03-15T11:39:46.988Z,1.63
2019-03-15T11:44:51.371Z,1.53
2019-03-15T11:49:55.703Z,2.40
2019-03-15T11:55:00.468Z,1.77
2019-03-15T12:00:06.005Z,2.97
2019-03-15T12:05:10.094Z,3.27
2019-03-15T12:10:14.408Z,4.80
2019-03-15T12:15:18.759Z,3.50
2019-03-15T12:20:23.066Z,5.43
2019-03-15T12:25:27.412Z,5.47
2019-03-15T12:30:31.671Z,6.90
2019-03-15T12:35:36.209Z,10.10
2019-03-15T12:40:40.316Z,9.63
2019-03-15T12:45:44.302Z,10.80
2019-03-15T12:50:53.083Z,9.33
2019-03-15T12:55:57.383Z,6.50
2019-03-15T13:01:01.447Z,9.60
2019-03-15T13:06:06.014Z,9.23
2019-03-15T13:11:10.334Z,9.73
2019-03-15T13:16:14.599Z,10.20
2019-03-15T13:21:20.824Z,9.53
2019-03-15T13:26:25.223Z,12.83
2019-03-15T13:31:29.135Z,12.00
2019-03-15T13:36:34.379Z,13.33
2019-03-15T13:41:38.446Z,13.90
2019-03-15T13:46:42.987Z,12.13
2019-03-15T13:51:47.041Z,11.93
2019-03-15T13:56:51.163Z,12.00
2019-03-15T14:01:55.278Z,6.83
2019-03-15T14:07:01.513Z,6.13
2019-03-15T14:12:06.872Z,8.30
2019-03-15T15:19:40.315Z,7.67
2019-03-15T15:24:44.383Z,8.47
2019-03-15T15:29:48.359Z,7.73
2019-03-15T15:34:52.910Z,7.10
2019-03-15T15:40:00.034Z,7.50
2019-03-15T15:45:03.578Z,6.20
2019-03-15T15:50:07.934Z,7.37
2019-03-15T15:55:12.022Z,7.97
2019-03-15T16:00:16.356Z,8.03
2019-03-15T16:05:20.682Z,6.30
2019-03-15T16:10:24.851Z,6.60
2019-03-15T16:15:29.286Z,7.30
2019-03-15T16:20:33.531Z,5.93
2019-03-15T16:25:37.703Z,4.00
2019-03-15T16:30:41.760Z,2.13
2019-03-15T16:35:46.534Z,2.57
2019-03-15T16:40:50.573Z,2.00
2019-03-15T16:45:54.880Z,1.83
2019-03-15T16:50:59.771Z,2.57
2019-03-15T16:56:04.135Z,5.90
2019-03-15T17:01:08.540Z,4.70
2019-03-15T17:06:12.535Z,3.67
2019-03-15T17:11:16.948Z,2.50
2019-03-15T17:16:21.271Z,3.30
2019-03-15T17:21:25.249Z,4.00
2019-03-15T17:26:29.890Z,3.87
2019-03-15T17:31:33.907Z,2.80
2019-03-15T17:36:38.305Z,2.80
2019-03-15T17:41:42.639Z,2.17
2019-03-15T17:46:47.078Z,3.20
2019-03-15T17:51:51.490Z,2.50
2019-03-15T17:56:55.506Z,2.77
2019-03-15T18:02:00.176Z,2.90
2019-03-15T18:07:04.896Z,2.63
2019-03-15T18:12:08.990Z,3.40
2019-03-15T18:17:13.481Z,2.70
2019-03-15T18:22:17.534Z,2.90
2019-03-15T18:27:21.535Z,3.30
2019-03-15T18:32:25.578Z,4.07
2019-03-15T18:37:29.666Z,2.83
2019-03-15T18:42:33.792Z,3.03
2019-03-15T18:47:37.834Z,2.77
2019-03-15T18:52:42.224Z,4.20
2019-03-15T18:57:46.892Z,3.27
2019-03-15T19:02:50.959Z,3.33
2019-03-15T19:07:55.327Z,2.80
2019-03-15T19:12:59.792Z,3.37
2019-03-15T19:18:07.076Z,2.63
2019-03-15T19:23:11.778Z,3.83
2019-03-15T19:28:15.830Z,3.17
2019-03-15T19:33:21.006Z,4.07
2019-03-15T19:38:25.740Z,2.80
2019-03-15T19:43:30.451Z,3.23
2019-03-15T19:48:34.935Z,4.30
2019-03-15T19:53:39.323Z,3.30
2019-03-15T19:58:44.543Z,4.37
2019-03-15T20:03:49.335Z,4.20
2019-03-15T20:08:53.828Z,4.20
2019-03-15T20:13:58.449Z,4.27
2019-03-15T20:19:02.891Z,3.67
2019-03-15T20:24:07.323Z,3.60
2019-03-15T20:29:30.461Z,3.93
2019-03-15T20:34:34.937Z,2.47
2019-03-15T20:39:39.027Z,3.97
2019-03-15T20:44:43.510Z,3.63
2019-03-15T20:49:48.337Z,3.43
2019-03-15T20:54:52.258Z,4.63
2019-03-15T20:59:56.519Z,3.10
2019-03-15T21:05:00.515Z,3.83
2019-03-15T21:10:05.019Z,3.87
2019-03-15T21:15:10.135Z,3.83
2019-03-15T21:20:14.598Z,3.10
2019-03-15T21:25:20.275Z,2.90
2019-03-15T21:30:24.349Z,4.80
2019-03-15T21:35:28.346Z,3.77
2019-03-15T21:40:33.318Z,3.63
2019-03-15T21:45:37.442Z,2.97
2019-03-15T21:50:41.723Z,2.80
2019-03-15T21:55:46.363Z,2.77
2019-03-15T22:01:01.629Z,3.03
2019-03-15T22:05:56.979Z,4.10
2019-03-15T22:11:01.322Z,3.10
2019-03-15T22:16:05.474Z,2.90
2019-03-15T22:21:09.458Z,3.50
2019-03-15T22:26:14.131Z,2.60
2019-03-15T22:31:18.114Z,3.37
2019-03-15T22:36:22.487Z,3.00
2019-03-15T22:41:27.450Z,3.57
2019-03-15T22:46:32.346Z,3.03
2019-03-15T22:51:36.351Z,4.40
2019-03-15T22:56:41.239Z,2.73
2019-03-15T23:01:45.647Z,3.07
2019-03-15T23:06:49.646Z,3.23
2019-03-15T23:11:53.815Z,2.60
2019-03-15T23:16:58.818Z,2.67
2019-03-15T23:22:03.454Z,2.57
2019-03-15T23:27:07.482Z,2.60
2019-03-15T23:32:11.787Z,2.63
2019-03-15T23:37:16.204Z,2.40
2019-03-15T23:42:20.299Z,2.93
2019-03-15T23:47:25.035Z,2.77
2019-03-15T23:52:29.541Z,2.23
2019-03-15T23:57:33.961Z,2.70
